Time;durP1;ratioP1;P1;durP2;ratioP2;P2;SDS_P1;SDS_P2;PMS_P1;PMS_P2;Temp;Humidity;BMP_temperature;BMP_pressure;BME280_temperature;BME280_humidity;BME280_pressure;Samples;Min_cycle;Max_cycle;Signal;HPM_P1;HPM_P2
2022/07/09 00:02:31;;;;;;;2.25;0.55;;;18.70;89.10;;;;;;6122340;23;20021;-53
2022/07/09 00:05:35;;;;;;;1.65;0.77;;;18.70;90.50;;;;;;6118537;23;20013;-55
2022/07/09 00:08:39;;;;;;;1.08;0.80;;;18.70;90.30;;;;;;6120561;23;20337;-55
2022/07/09 00:11:44;;;;;;;3.88;0.90;;;18.70;90.10;;;;;;6120436;23;20347;-54
2022/07/09 00:14:50;;;;;;;3.35;1.00;;;18.80;90.20;;;;;;6117970;23;20021;-51
2022/07/09 00:17:54;;;;;;;2.47;0.77;;;18.80;89.80;;;;;;6119298;23;20217;-54
2022/07/09 00:20:58;;;;;;;0.88;0.73;;;18.90;90.20;;;;;;6120964;23;20021;-52
2022/07/09 00:24:02;;;;;;;1.23;0.70;;;18.90;90.30;;;;;;6119095;23;20020;-55
2022/07/09 00:27:06;;;;;;;0.75;0.60;;;18.90;90.10;;;;;;6120037;23;20473;-53
2022/07/09 00:30:11;;;;;;;1.83;0.82;;;18.90;90.20;;;;;;6118537;23;20025;-51
2022/07/09 00:33:15;;;;;;;1.98;1.30;;;19.00;89.80;;;;;;6120487;23;20358;-55
2022/07/09 00:36:19;;;;;;;2.90;1.17;;;19.00;90.20;;;;;;6121006;23;20021;-55
2022/07/09 00:39:24;;;;;;;2.45;1.02;;;19.00;90.50;;;;;;6118504;23;20025;-52
2022/07/09 00:42:28;;;;;;;2.13;0.98;;;19.00;90.80;;;;;;6119762;23;20025;-54
2022/07/09 00:45:32;;;;;;;2.13;1.00;;;19.00;90.90;;;;;;6120605;23;20013;-55
2022/07/09 00:48:37;;;;;;;2.08;0.80;;;19.00;90.90;;;;;;6117943;23;20017;-52
2022/07/09 00:51:41;;;;;;;2.00;1.00;;;19.00;90.60;;;;;;6120121;23;20461;-51
2022/07/09 00:54:45;;;;;;;2.63;0.80;;;19.00;91.00;;;;;;6118884;23;20017;-51
2022/07/09 00:57:49;;;;;;;1.00;0.57;;;19.00;91.20;;;;;;6119506;23;20348;-51
2022/07/09 01:00:55;;;;;;;2.97;0.90;;;19.00;90.80;;;;;;6120216;23;20358;-52
2022/07/09 01:03:59;;;;;;;1.10;0.77;;;19.10;90.70;;;;;;6119206;23;20021;-54
2022/07/09 01:07:03;;;;;;;0.95;0.52;;;19.20;90.60;;;;;;6119843;23;20350;-55
2022/07/09 01:10:08;;;;;;;1.27;0.80;;;19.30;90.30;;;;;;6117970;23;20021;-54
2022/07/09 01:13:12;;;;;;;0.52;0.50;;;19.30;90.50;;;;;;6119430;23;20021;-54
2022/07/09 01:16:16;;;;;;;3.08;0.68;;;19.40;90.30;;;;;;6117937;23;20021;-52
2022/07/09 01:19:20;;;;;;;0.65;0.57;;;19.50;90.00;;;;;;6119095;23;20017;-51
2022/07/09 01:22:24;;;;;;;0.90;0.75;;;19.40;90.60;;;;;;6119426;23;20029;-52
2022/07/09 01:25:36;;;;;;;1.50;0.68;;;19.20;90.90;;;;;;6119056;23;20017;-52
2022/07/09 01:28:40;;;;;;;0.93;0.60;;;19.00;91.30;;;;;;6117936;23;20017;-52
2022/07/09 01:31:44;;;;;;;2.47;0.70;;;18.90;91.90;;;;;;6118465;23;20017;-54
2022/07/09 01:34:48;;;;;;;2.17;0.80;;;18.70;92.60;;;;;;6118161;23;20017;-52
2022/07/09 01:37:52;;;;;;;1.17;0.60;;;18.40;93.00;;;;;;6118080;23;20017;-52
2022/07/09 01:40:57;;;;;;;0.73;0.70;;;18.50;92.90;;;;;;6118214;23;20021;-51
2022/07/09 01:44:00;;;;;;;1.20;0.65;;;18.50;93.20;;;;;;6117325;23;20025;-52
2022/07/09 01:47:04;;;;;;;2.35;0.82;;;18.30;94.70;;;;;;6117647;23;20465;-51
2022/07/09 01:50:09;;;;;;;3.22;1.00;;;18.00;95.90;;;;;;6117558;23;20021;-54
2022/07/09 01:53:13;;;;;;;2.35;0.80;;;17.70;97.00;;;;;;6117499;23;20033;-52
2022/07/09 01:56:17;;;;;;;3.10;0.88;;;17.50;98.00;;;;;;6117756;23;20473;-51
2022/07/09 01:59:21;;;;;;;1.75;0.80;;;17.40;99.30;;;;;;6117775;23;20033;-54
2022/07/09 02:02:26;;;;;;;1.27;0.80;;;17.30;99.70;;;;;;6118805;23;20021;-52
2022/07/09 02:05:30;;;;;;;1.60;1.00;;;17.30;99.80;;;;;;6119747;23;20482;-51
2022/07/09 02:08:34;;;;;;;1.08;0.60;;;17.30;99.80;;;;;;6119199;23;20045;-51
2022/07/09 02:11:37;;;;;;;3.15;0.90;;;17.40;99.80;;;;;;6119093;23;20036;-52
2022/07/09 02:14:41;;;;;;;1.98;0.60;;;17.40;99.60;;;;;;6119078;23;20453;-53
2022/07/09 02:17:46;;;;;;;4.35;0.77;;;17.50;99.70;;;;;;6119469;23;20021;-51
2022/07/09 02:20:50;;;;;;;1.00;0.75;;;17.60;99.50;;;;;;6118155;23;20180;-52
2022/07/09 02:23:58;;;;;;;1.73;0.93;;;17.50;99.70;;;;;;6119322;23;20029;-54
2022/07/09 02:27:02;;;;;;;3.95;1.25;;;17.50;99.70;;;;;;6119776;23;20021;-53
2022/07/09 02:30:06;;;;;;;1.00;0.70;;;17.50;99.70;;;;;;6118947;23;20017;-55
2022/07/09 02:33:10;;;;;;;1.20;0.70;;;17.60;99.70;;;;;;6119901;23;20017;-53
2022/07/09 02:36:14;;;;;;;1.40;0.80;;;17.60;99.50;;;;;;6119893;23;20049;-53
2022/07/09 02:39:19;;;;;;;1.40;0.98;;;17.60;99.90;;;;;;6118562;23;20021;-54
2022/07/09 02:42:23;;;;;;;3.33;0.95;;;17.60;99.70;;;;;;6119251;23;20327;-51
2022/07/09 02:45:27;;;;;;;1.40;0.70;;;17.70;99.60;;;;;;6118568;23;20024;-55
2022/07/09 02:48:31;;;;;;;1.83;1.02;;;17.70;99.30;;;;;;6120801;23;20013;-51
2022/07/09 02:51:35;;;;;;;4.22;1.08;;;17.80;99.00;;;;;;6120330;23;20021;-52
2022/07/09 02:54:39;;;;;;;1.50;0.70;;;17.90;98.60;;;;;;6121153;23;20029;-51
2022/07/09 02:57:43;;;;;;;1.50;0.80;;;18.10;98.10;;;;;;6121771;23;20020;-54
2022/07/09 03:00:48;;;;;;;2.22;0.85;;;18.10;98.00;;;;;;6120959;23;20050;-53
2022/07/09 03:03:52;;;;;;;2.13;0.80;;;18.10;97.70;;;;;;6123514;23;20541;-52
2022/07/09 03:06:56;;;;;;;1.50;0.80;;;18.10;98.10;;;;;;6120494;23;20057;-53
2022/07/09 03:10:00;;;;;;;0.90;0.70;;;18.10;98.30;;;;;;6119482;23;20037;-52
2022/07/09 03:13:04;;;;;;;1.52;0.60;;;18.10;98.40;;;;;;6118384;23;20029;-54
2022/07/09 03:16:08;;;;;;;1.23;0.70;;;18.10;98.70;;;;;;6119698;23;20025;-55
2022/07/09 03:19:13;;;;;;;0.80;0.70;;;18.20;98.50;;;;;;6121846;23;20021;-54
2022/07/09 03:22:17;;;;;;;1.50;0.63;;;18.20;98.60;;;;;;6118313;23;20037;-53
2022/07/09 03:25:21;;;;;;;2.65;0.70;;;18.20;98.80;;;;;;6122238;23;20385;-55
2022/07/09 03:28:27;;;;;;;2.08;0.93;;;18.20;99.30;;;;;;6118676;23;20021;-55
2022/07/09 03:31:30;;;;;;;2.17;0.82;;;18.00;99.30;;;;;;6119986;23;20021;-52
2022/07/09 03:34:35;;;;;;;0.98;0.70;;;17.90;99.60;;;;;;6118344;23;20017;-51
2022/07/09 03:37:39;;;;;;;1.00;0.65;;;17.70;99.90;;;;;;6120579;23;20025;-53
2022/07/09 03:40:43;;;;;;;1.25;0.80;;;17.50;99.90;;;;;;6121907;23;20021;-52
2022/07/09 03:43:47;;;;;;;1.90;0.90;;;17.40;99.90;;;;;;6118050;23;20358;-52
2022/07/09 03:46:50;;;;;;;1.58;0.90;;;17.20;99.90;;;;;;6121686;23;20017;-55
2022/07/09 03:49:55;;;;;;;1.15;0.80;;;17.20;99.90;;;;;;6119420;23;20021;-51
2022/07/09 03:52:59;;;;;;;1.95;0.80;;;17.20;99.90;;;;;;6117411;23;20355;-52
2022/07/09 03:56:04;;;;;;;3.08;0.80;;;17.30;99.90;;;;;;6122050;23;20346;-51
2022/07/09 03:59:08;;;;;;;1.83;0.80;;;17.30;99.90;;;;;;6117743;23;20073;-53
2022/07/09 04:02:12;;;;;;;0.93;0.80;;;17.30;99.90;;;;;;6118948;23;20026;-56
2022/07/09 04:05:16;;;;;;;0.90;0.70;;;17.40;99.90;;;;;;6118789;23;20040;-53
2022/07/09 04:08:20;;;;;;;2.65;0.68;;;17.60;99.90;;;;;;6121139;23;20033;-51
2022/07/09 04:11:23;;;;;;;1.58;0.75;;;17.60;99.90;;;;;;6118682;23;20351;-51
2022/07/09 04:14:27;;;;;;;0.77;0.70;;;17.50;99.90;;;;;;6118217;23;20021;-53
2022/07/09 04:17:31;;;;;;;2.35;0.75;;;17.50;99.90;;;;;;6118259;23;20042;-53
2022/07/09 04:20:35;;;;;;;0.85;0.73;;;17.30;99.90;;;;;;6119914;23;20021;-51
2022/07/09 04:23:39;;;;;;;1.10;0.80;;;17.20;99.90;;;;;;6118304;23;20025;-53
2022/07/09 04:26:43;;;;;;;1.30;0.70;;;17.20;99.90;;;;;;6120352;23;20342;-51
2022/07/09 04:29:47;;;;;;;1.20;0.80;;;17.20;99.90;;;;;;6119521;23;20037;-51
2022/07/09 04:32:51;;;;;;;1.80;0.90;;;17.10;99.90;;;;;;6119403;23;20028;-52
2022/07/09 04:35:55;;;;;;;1.98;1.00;;;17.20;99.90;;;;;;6121920;23;20025;-52
2022/07/09 04:38:59;;;;;;;8.27;1.08;;;19.20;99.90;;;;;;6118129;23;20021;-51
2022/07/09 04:42:03;;;;;;;6.32;0.90;;;21.40;99.00;;;;;;6120319;23;20021;-52
2022/07/09 04:45:08;;;;;;;4.90;0.80;;;23.60;95.50;;;;;;6122019;23;20025;-52
2022/07/09 04:48:12;;;;;;;3.38;0.77;;;25.70;92.50;;;;;;6118800;23;20025;-51
2022/07/09 04:51:16;;;;;;;2.90;0.75;;;26.70;89.80;;;;;;6120805;23;20253;-54
2022/07/09 04:54:20;;;;;;;3.10;0.70;;;26.10;88.50;;;;;;6121622;23;20021;-55
2022/07/09 04:57:23;;;;;;;2.28;0.52;;;27.10;87.50;;;;;;6121333;23;20041;-52
2022/07/09 05:00:28;;;;;;;1.30;0.70;;;28.60;84.70;;;;;;6118354;23;20021;-52
2022/07/09 05:03:31;;;;;;;1.98;0.70;;;29.90;80.70;;;;;;6118815;23;20290;-52
2022/07/09 05:06:35;;;;;;;1.23;0.70;;;30.00;79.50;;;;;;6119936;23;20017;-51
2022/07/09 05:09:40;;;;;;;1.85;0.80;;;30.40;79.60;;;;;;6120461;23;20017;-52
2022/07/09 05:12:44;;;;;;;1.17;0.60;;;31.40;78.20;;;;;;6119584;23;20465;-51
2022/07/09 05:15:48;;;;;;;7.18;0.90;;;31.60;76.90;;;;;;6120085;23;20024;-52
2022/07/09 05:18:52;;;;;;;6.95;1.02;;;31.80;76.30;;;;;;6120678;23;20017;-52
2022/07/09 05:21:56;;;;;;;6.55;0.60;;;32.50;75.80;;;;;;6119369;23;20037;-53
2022/07/09 05:25:01;;;;;;;2.33;0.80;;;32.90;74.00;;;;;;6120450;23;20025;-57
2022/07/09 05:28:05;;;;;;;10.35;0.77;;;33.20;73.70;;;;;;6120102;23;20025;-54
2022/07/09 05:31:09;;;;;;;4.68;0.73;;;33.60;72.50;;;;;;6121126;23;20021;-53
2022/07/09 05:34:13;;;;;;;6.00;0.80;;;33.40;72.50;;;;;;6118192;23;20025;-52
2022/07/09 05:37:17;;;;;;;0.95;0.52;;;33.50;72.50;;;;;;6120255;23;20020;-51
2022/07/09 05:40:21;;;;;;;2.85;0.60;;;33.30;72.20;;;;;;6120483;23;20021;-53
2022/07/09 05:43:25;;;;;;;1.25;0.60;;;33.00;72.50;;;;;;6117774;23;20025;-54
2022/07/09 05:46:29;;;;;;;1.73;0.68;;;33.30;71.90;;;;;;6118188;23;20017;-52
2022/07/09 05:49:33;;;;;;;2.55;0.60;;;33.40;71.80;;;;;;6120034;23;20469;-55
2022/07/09 05:52:37;;;;;;;1.55;0.50;;;33.80;71.20;;;;;;6118926;23;20037;-55
2022/07/09 05:55:41;;;;;;;4.32;0.70;;;34.00;70.90;;;;;;6120192;23;20054;-52
2022/07/09 05:58:45;;;;;;;6.53;0.70;;;34.30;70.40;;;;;;6118605;23;20077;-53
2022/07/09 06:01:48;;;;;;;3.38;0.65;;;34.20;70.10;;;;;;6119324;23;20021;-55
2022/07/09 06:04:52;;;;;;;8.05;1.08;;;34.20;69.80;;;;;;6119182;23;20021;-54
2022/07/09 06:07:57;;;;;;;4.35;0.80;;;34.00;69.70;;;;;;6119012;23;20017;-53
2022/07/09 06:11:01;;;;;;;0.68;0.47;;;33.80;69.30;;;;;;6117799;23;20440;-55
2022/07/09 06:14:05;;;;;;;1.05;0.50;;;32.60;70.10;;;;;;6117445;23;20017;-52
2022/07/09 06:17:09;;;;;;;0.40;0.40;;;32.70;70.00;;;;;;6118666;23;20046;-52
2022/07/09 06:20:14;;;;;;;1.60;0.50;;;33.10;69.80;;;;;;6117861;23;20024;-53
2022/07/09 06:23:18;;;;;;;2.55;0.70;;;33.00;69.20;;;;;;6117740;23;20017;-53
2022/07/09 06:26:22;;;;;;;3.60;0.57;;;32.80;68.70;;;;;;6117641;23;20013;-53
2022/07/09 06:29:26;;;;;;;3.30;0.82;;;32.80;69.30;;;;;;6118163;23;20025;-51
2022/07/09 06:32:30;;;;;;;2.85;1.10;;;32.80;69.60;;;;;;6117938;23;20469;-52
2022/07/09 06:35:34;;;;;;;2.03;0.80;;;33.00;69.20;;;;;;6117680;23;20021;-53
2022/07/09 06:39:44;;;;;;;3.83;0.68;;;33.30;69.30;;;;;;6117927;23;20477;-53
2022/07/09 06:42:06;;;;;;;3.08;0.70;;;33.60;67.60;;;;;;6117502;23;20021;-52
2022/07/09 06:45:10;;;;;;;2.53;0.60;;;33.40;67.50;;;;;;6117581;23;20021;-52
2022/07/09 06:48:14;;;;;;;1.63;0.57;;;33.70;67.80;;;;;;6118899;23;20021;-54
2022/07/09 06:51:18;;;;;;;4.22;0.95;;;33.90;67.30;;;;;;6119282;23;20017;-52
2022/07/09 06:54:22;;;;;;;1.60;0.50;;;33.40;68.30;;;;;;6118722;23;20020;-55
2022/07/09 06:57:28;;;;;;;3.03;0.75;;;32.80;69.10;;;;;;6119062;23;20021;-52
2022/07/09 07:00:33;;;;;;;3.15;0.70;;;33.00;68.40;;;;;;6119256;23;20025;-52
2022/07/09 07:03:37;;;;;;;1.90;0.60;;;33.20;68.20;;;;;;6118808;23;20021;-55
2022/07/09 07:06:42;;;;;;;2.60;0.95;;;33.70;67.70;;;;;;6119275;23;20022;-52
2022/07/09 07:09:45;;;;;;;1.98;0.50;;;34.40;66.40;;;;;;6118977;23;20021;-54
2022/07/09 07:12:49;;;;;;;2.45;0.60;;;35.00;64.80;;;;;;6119950;23;20036;-53
2022/07/09 07:15:53;;;;;;;0.80;0.40;;;35.50;65.20;;;;;;6120688;23;20354;-53
2022/07/09 07:18:57;;;;;;;2.67;0.65;;;35.50;64.70;;;;;;6120371;23;20017;-53
2022/07/09 07:22:01;;;;;;;3.38;0.60;;;35.70;65.50;;;;;;6120329;23;20017;-51
2022/07/09 07:25:06;;;;;;;1.30;0.75;;;35.00;67.00;;;;;;6119322;23;20017;-51
2022/07/09 07:28:11;;;;;;;2.22;0.60;;;34.90;66.80;;;;;;6120028;23;20020;-55
2022/07/09 07:31:15;;;;;;;2.00;0.60;;;31.80;69.10;;;;;;6118799;23;20021;-55
2022/07/09 07:34:22;;;;;;;2.47;0.68;;;32.70;70.20;;;;;;6118134;23;20021;-51
2022/07/09 07:37:26;;;;;;;1.45;0.60;;;33.70;68.80;;;;;;6119106;23;20557;-52
2022/07/09 07:40:30;;;;;;;2.33;0.60;;;34.60;67.80;;;;;;6118209;23;20021;-51
2022/07/09 07:43:34;;;;;;;1.30;0.63;;;35.50;65.90;;;;;;6122855;23;20021;-51
2022/07/09 07:46:38;;;;;;;3.20;0.70;;;35.00;65.80;;;;;;6118215;23;20013;-51
2022/07/09 07:49:41;;;;;;;2.22;0.73;;;34.90;66.20;;;;;;6118184;23;20021;-53
2022/07/09 07:52:46;;;;;;;1.70;0.50;;;35.60;65.00;;;;;;6118527;23;20465;-54
2022/07/09 07:55:50;;;;;;;1.70;0.70;;;36.50;63.10;;;;;;6119977;23;20460;-55
2022/07/09 07:58:54;;;;;;;3.17;0.73;;;36.30;61.50;;;;;;6118187;23;20021;-51
2022/07/09 08:01:58;;;;;;;2.95;0.65;;;36.00;62.10;;;;;;6121326;23;20353;-52
2022/07/09 08:05:02;;;;;;;1.35;0.55;;;36.20;61.60;;;;;;6118844;23;20029;-52
2022/07/09 08:08:06;;;;;;;1.35;0.50;;;37.10;60.10;;;;;;6121537;23;20017;-51
2022/07/09 08:11:10;;;;;;;2.10;0.60;;;37.70;59.40;;;;;;6121894;23;20017;-53
2022/07/09 08:14:15;;;;;;;1.35;0.63;;;35.70;61.50;;;;;;6117997;23;20033;-52
2022/07/09 08:17:19;;;;;;;0.70;0.50;;;36.60;60.50;;;;;;6118668;23;20021;-51
2022/07/09 08:20:22;;;;;;;3.47;0.43;;;38.20;58.90;;;;;;6120423;23;20029;-52
2022/07/09 08:23:26;;;;;;;0.82;0.38;;;38.40;57.90;;;;;;6122632;23;20470;-54
2022/07/09 08:26:30;;;;;;;2.83;0.60;;;38.30;57.50;;;;;;6118914;23;20021;-57
2022/07/09 08:29:34;;;;;;;1.55;0.55;;;38.90;56.50;;;;;;6121409;23;20021;-54
2022/07/09 08:32:39;;;;;;;1.73;0.50;;;38.90;56.50;;;;;;6121823;23;20339;-54
2022/07/09 08:35:43;;;;;;;3.80;0.60;;;36.20;55.80;;;;;;6118273;23;20021;-55
2022/07/09 08:38:49;;;;;;;3.83;0.68;;;37.70;57.10;;;;;;6122382;23;20025;-56
2022/07/09 08:41:54;;;;;;;5.28;0.57;;;34.40;57.10;;;;;;6119479;23;20021;-51
2022/07/09 08:45:10;;;;;;;1.73;0.60;;;36.60;57.90;;;;;;6119866;23;20029;-57
2022/07/09 08:48:13;;;;;;;3.38;0.68;;;38.30;56.60;;;;;;6122189;23;20485;-52
2022/07/09 08:51:19;;;;;;;4.78;0.50;;;38.50;56.40;;;;;;6118138;23;20042;-52
2022/07/09 08:54:23;;;;;;;1.05;0.52;;;38.00;56.70;;;;;;6120813;23;20021;-52
2022/07/09 08:57:27;;;;;;;4.68;0.70;;;38.90;56.20;;;;;;6117731;23;20021;-52
2022/07/09 09:00:32;;;;;;;1.40;0.50;;;39.70;54.50;;;;;;6119940;23;20029;-52
2022/07/09 09:03:35;;;;;;;1.55;0.65;;;39.10;54.50;;;;;;6121879;23;20025;-55
2022/07/09 09:06:39;;;;;;;3.33;0.70;;;41.00;54.10;;;;;;6139402;22;20028;-70
2022/07/09 09:09:44;;;;;;;3.13;0.82;;;41.00;53.60;;;;;;6180592;23;20015;-69
2022/07/09 09:12:48;;;;;;;3.05;0.50;;;39.90;52.90;;;;;;6177156;23;20032;-70
2022/07/09 09:16:06;;;;;;;2.38;0.73;;;41.40;53.60;;;;;;6179141;23;20014;-70
2022/07/09 09:19:10;;;;;;;2.25;0.80;;;43.30;52.20;;;;;;6162038;23;20012;-70
2022/07/09 09:22:17;;;;;;;1.92;0.57;;;44.40;51.00;;;;;;6180349;23;20016;-71
2022/07/09 09:25:23;;;;;;;1.75;0.60;;;45.30;50.30;;;;;;6181035;23;20020;-70
2022/07/09 09:28:27;;;;;;;1.48;0.75;;;44.70;50.30;;;;;;6187998;23;20016;-69
2022/07/09 09:31:32;;;;;;;1.58;0.70;;;42.40;50.80;;;;;;6181207;23;20114;-68
2022/07/09 09:34:41;;;;;;;2.05;0.80;;;42.80;51.10;;;;;;6176951;23;20021;-69
2022/07/09 09:37:45;;;;;;;2.53;0.63;;;44.40;50.40;;;;;;6178710;23;20031;-70
2022/07/09 09:40:48;;;;;;;2.78;0.70;;;45.70;49.80;;;;;;6180543;23;20020;-68
2022/07/09 09:43:56;;;;;;;1.33;0.73;;;45.90;49.00;;;;;;6177915;23;20045;-68
2022/07/09 09:47:00;;;;;;;1.85;0.63;;;43.20;50.90;;;;;;6178585;23;20012;-68
2022/07/09 09:50:05;;;;;;;4.75;1.02;;;42.70;50.70;;;;;;6178355;23;20064;-69
2022/07/09 09:53:11;;;;;;;2.70;0.93;;;42.50;51.10;;;;;;6178258;23;20016;-69
2022/07/09 09:56:15;;;;;;;4.47;0.80;;;41.00;51.60;;;;;;6179017;23;20020;-68
2022/07/09 09:59:20;;;;;;;3.28;0.80;;;40.40;51.70;;;;;;6179335;23;20016;-69
2022/07/09 10:02:25;;;;;;;4.57;0.80;;;40.10;52.40;;;;;;6179622;23;20024;-69
2022/07/09 10:05:29;;;;;;;2.15;0.80;;;41.90;52.10;;;;;;6178292;23;20028;-69
2022/07/09 10:08:34;;;;;;;1.55;0.77;;;43.20;50.80;;;;;;6178881;23;20024;-68
2022/07/09 10:11:47;;;;;;;1.52;0.70;;;41.80;51.20;;;;;;6178607;23;20016;-68
2022/07/09 10:14:51;;;;;;;1.77;0.93;;;42.10;50.60;;;;;;6177423;23;20028;-70
2022/07/09 10:17:55;;;;;;;3.47;0.70;;;42.10;50.90;;;;;;6177880;23;20071;-68
2022/07/09 10:20:59;;;;;;;3.35;0.80;;;42.00;51.30;;;;;;6177732;23;20024;-69
2022/07/09 10:24:04;;;;;;;4.03;1.00;;;41.70;50.70;;;;;;6177852;23;20016;-69
2022/07/09 10:27:10;;;;;;;1.35;0.68;;;40.60;51.00;;;;;;6178864;23;20036;-69
2022/07/09 10:30:32;;;;;;;2.85;0.68;;;40.80;51.30;;;;;;6178539;23;20017;-70
2022/07/09 10:33:48;;;;;;;2.20;0.80;;;39.70;50.70;;;;;;6178346;23;20020;-70
2022/07/09 10:37:03;;;;;;;1.95;0.80;;;37.30;53.20;;;;;;6188060;23;20016;-69
2022/07/09 10:40:19;;;;;;;4.68;0.68;;;40.90;53.00;;;;;;6183174;23;20329;-69
2022/07/09 10:43:57;;;;;;;2.17;0.70;;;43.60;51.10;;;;;;6180121;23;20020;-70
2022/07/09 10:47:02;;;;;;;2.00;0.80;;;44.60;49.60;;;;;;6161566;23;20016;-69
2022/07/09 10:50:06;;;;;;;3.45;1.00;;;43.20;50.20;;;;;;6180879;23;20016;-70
2022/07/09 10:53:13;;;;;;;1.85;0.60;;;41.70;50.70;;;;;;6180873;23;20021;-70
2022/07/09 10:56:19;;;;;;;2.15;0.88;;;41.60;51.90;;;;;;6178218;23;20020;-69
2022/07/09 10:59:25;;;;;;;1.30;0.65;;;40.00;53.10;;;;;;6183930;23;20340;-70
2022/07/09 11:02:29;;;;;;;1.20;0.60;;;40.90;52.50;;;;;;6179306;23;20336;-69
2022/07/09 11:05:42;;;;;;;2.10;0.80;;;41.30;52.10;;;;;;6180619;23;20024;-69
2022/07/09 11:08:47;;;;;;;4.63;0.90;;;40.20;51.70;;;;;;6182331;23;20020;-69
2022/07/09 11:11:51;;;;;;;1.50;0.88;;;40.30;52.60;;;;;;6178246;23;20016;-70
2022/07/09 11:14:55;;;;;;;1.90;0.85;;;41.70;52.00;;;;;;6160718;23;20017;-68
2022/07/09 11:18:00;;;;;;;8.15;0.90;;;41.50;51.80;;;;;;6170273;23;20332;-70
2022/07/09 11:21:04;;;;;;;2.65;0.95;;;41.70;52.40;;;;;;6182524;23;20024;-69
2022/07/09 11:24:22;;;;;;;5.00;0.70;;;40.50;52.30;;;;;;6178050;23;20017;-69
2022/07/09 11:27:25;;;;;;;1.55;0.90;;;36.70;54.40;;;;;;6178590;23;20447;-67
2022/07/09 11:30:32;;;;;;;2.10;0.80;;;34.90;57.00;;;;;;6179633;23;20012;-68
2022/07/09 11:36:59;;;;;;;2.50;1.00;;;37.70;55.30;;;;;;6188278;23;20020;-69
2022/07/09 11:40:05;;;;;;;2.55;0.80;;;37.80;55.00;;;;;;6161169;23;20024;-71
2022/07/09 11:43:16;;;;;;;4.60;0.80;;;37.90;55.10;;;;;;6143077;23;20021;-68
2022/07/09 11:46:20;;;;;;;1.98;0.80;;;33.30;57.90;;;;;;6185208;23;20024;-68
2022/07/09 11:49:32;;;;;;;3.20;0.90;;;33.20;58.30;;;;;;6187206;23;20463;-68
2022/07/09 11:52:43;;;;;;;1.20;0.75;;;33.00;58.10;;;;;;6178220;23;20021;-70
2022/07/09 11:56:03;;;;;;;4.43;1.02;;;34.40;57.60;;;;;;6183738;23;20336;-68
2022/07/09 11:59:08;;;;;;;2.92;1.10;;;35.70;56.40;;;;;;6187344;23;20455;-68
2022/07/09 12:02:21;;;;;;;2.15;1.08;;;35.80;55.50;;;;;;6165977;23;20016;-69
2022/07/09 12:05:27;;;;;;;3.60;1.13;;;34.50;56.70;;;;;;6185418;23;20016;-69
2022/07/09 12:08:32;;;;;;;4.25;0.93;;;33.80;58.40;;;;;;6187604;23;20455;-69
2022/07/09 12:11:36;;;;;;;4.40;0.90;;;33.80;58.20;;;;;;6183040;23;20020;-69
2022/07/09 12:14:40;;;;;;;2.97;0.88;;;34.90;57.60;;;;;;6185012;23;20024;-70
2022/07/09 12:17:44;;;;;;;2.15;0.90;;;34.60;57.40;;;;;;6181361;23;20028;-69
2022/07/09 12:20:48;;;;;;;3.10;1.00;;;34.50;57.70;;;;;;6182521;23;20332;-69
2022/07/09 12:23:52;;;;;;;5.20;1.15;;;34.70;57.70;;;;;;6165377;23;20028;-69
2022/07/09 12:27:47;;;;;;;3.72;0.95;;;35.60;56.90;;;;;;6190860;23;20336;-70
2022/07/09 12:30:51;;;;;;;3.35;0.90;;;36.00;56.40;;;;;;6178307;23;20016;-70
2022/07/09 12:33:55;;;;;;;5.93;0.80;;;36.90;55.90;;;;;;6178474;23;20016;-69
2022/07/09 12:36:59;;;;;;;2.22;0.88;;;36.30;55.80;;;;;;6181069;23;20020;-70
2022/07/09 12:40:05;;;;;;;4.50;1.10;;;36.10;56.50;;;;;;6183812;23;20020;-69
2022/07/09 12:43:09;;;;;;;0.90;0.77;;;36.50;56.10;;;;;;6179340;23;20071;-70
2022/07/09 12:46:13;;;;;;;8.32;1.40;;;36.90;55.90;;;;;;6180797;23;20020;-69
2022/07/09 12:49:17;;;;;;;2.50;1.00;;;35.60;56.20;;;;;;6182175;23;20032;-69
2022/07/09 12:52:21;;;;;;;7.22;1.15;;;34.60;56.90;;;;;;6144665;23;20462;-69
2022/07/09 12:55:25;;;;;;;3.30;1.10;;;35.50;56.80;;;;;;6143465;23;20020;-69
2022/07/09 12:58:29;;;;;;;4.05;1.25;;;36.60;56.10;;;;;;6179260;23;20029;-69
2022/07/09 13:01:33;;;;;;;4.18;1.10;;;36.80;55.40;;;;;;6180594;23;20024;-70
2022/07/09 13:04:37;;;;;;;2.03;0.90;;;36.20;55.70;;;;;;6180327;23;20020;-70
2022/07/09 13:07:41;;;;;;;2.13;1.00;;;36.30;55.60;;;;;;6178264;23;20020;-69
2022/07/09 13:10:45;;;;;;;1.88;0.80;;;37.20;54.70;;;;;;6188013;23;20015;-69
2022/07/09 13:13:49;;;;;;;1.48;0.70;;;38.20;54.00;;;;;;6179226;23;20020;-67
2022/07/09 13:16:53;;;;;;;2.63;0.93;;;38.30;53.50;;;;;;6181065;23;20020;-68
2022/07/09 13:19:57;;;;;;;2.58;1.13;;;38.00;53.30;;;;;;6187843;23;20020;-68
2022/07/09 13:23:02;;;;;;;2.42;1.23;;;37.80;53.60;;;;;;6180113;23;20020;-68
2022/07/09 13:26:06;;;;;;;2.13;0.70;;;37.40;54.30;;;;;;6162593;23;20020;-69
2022/07/09 13:29:10;;;;;;;1.42;0.80;;;38.00;53.80;;;;;;6186566;23;20012;-68
2022/07/09 13:32:15;;;;;;;2.20;1.00;;;37.70;53.20;;;;;;6178432;23;20020;-68
2022/07/09 13:35:19;;;;;;;1.00;0.90;;;37.80;53.30;;;;;;6178059;23;20024;-69
2022/07/09 13:38:23;;;;;;;5.07;1.00;;;37.40;53.90;;;;;;6179537;23;20020;-69
2022/07/09 13:41:27;;;;;;;2.30;1.00;;;37.40;53.20;;;;;;6180665;23;20458;-69
2022/07/09 13:44:32;;;;;;;2.50;0.77;;;37.30;53.40;;;;;;6179717;23;20024;-70
2022/07/09 13:47:37;;;;;;;1.90;0.88;;;37.60;53.30;;;;;;6177455;23;20017;-67
2022/07/09 13:50:41;;;;;;;2.47;1.02;;;37.70;53.20;;;;;;6187769;23;20028;-68
2022/07/09 13:53:45;;;;;;;2.05;0.80;;;37.40;53.60;;;;;;6178879;23;20024;-69
2022/07/09 13:56:49;;;;;;;5.68;0.70;;;37.00;53.30;;;;;;6178855;23;20020;-67
2022/07/09 13:59:53;;;;;;;3.08;1.30;;;36.70;54.70;;;;;;6191290;23;20035;-69
2022/07/09 14:02:58;;;;;;;1.60;0.93;;;36.40;54.50;;;;;;6188774;23;20016;-68
2022/07/09 14:06:02;;;;;;;4.43;1.00;;;36.00;54.30;;;;;;6189320;23;20028;-68
2022/07/09 14:09:06;;;;;;;2.90;1.00;;;35.60;54.20;;;;;;6177221;23;20102;-68
2022/07/09 14:12:10;;;;;;;2.65;1.20;;;35.50;54.20;;;;;;6178313;23;20016;-68
2022/07/09 14:15:14;;;;;;;3.97;0.98;;;35.20;55.60;;;;;;6176805;23;20024;-67
2022/07/09 14:18:18;;;;;;;2.28;1.00;;;35.30;55.40;;;;;;6179903;23;20348;-67
2022/07/09 14:21:22;;;;;;;2.97;1.10;;;35.00;55.00;;;;;;6180792;23;20028;-68
2022/07/09 14:24:26;;;;;;;1.30;0.85;;;34.80;55.30;;;;;;6161512;23;20020;-70
2022/07/09 14:27:30;;;;;;;5.97;0.98;;;34.90;54.00;;;;;;6184380;23;20023;-67
2022/07/09 14:30:34;;;;;;;2.25;1.10;;;34.80;55.90;;;;;;6188566;23;20016;-68
2022/07/09 14:33:38;;;;;;;1.77;0.90;;;34.60;54.60;;;;;;6180481;23;20016;-68
2022/07/09 14:36:43;;;;;;;7.82;0.90;;;34.40;55.60;;;;;;6180546;23;20041;-67
2022/07/09 14:39:46;;;;;;;8.13;1.42;;;34.40;55.40;;;;;;6159395;23;20024;-67
2022/07/09 14:42:50;;;;;;;2.65;0.90;;;34.30;55.50;;;;;;6188587;23;20020;-68
2022/07/09 14:45:54;;;;;;;4.75;1.10;;;34.20;56.10;;;;;;6180585;23;20016;-69
2022/07/09 14:48:58;;;;;;;1.00;0.80;;;34.40;55.70;;;;;;6190067;23;20017;-68
2022/07/09 14:52:02;;;;;;;4.13;0.73;;;34.40;55.20;;;;;;6188357;23;20020;-70
2022/07/09 14:55:07;;;;;;;3.90;0.80;;;34.20;54.70;;;;;;6180373;23;20020;-68
2022/07/09 14:58:10;;;;;;;6.63;0.90;;;34.10;55.40;;;;;;6179428;23;20718;-69
2022/07/09 15:01:15;;;;;;;3.05;0.90;;;33.90;56.10;;;;;;6180228;23;20064;-68
2022/07/09 15:04:18;;;;;;;1.60;0.70;;;33.70;56.40;;;;;;6179714;23;20024;-70
2022/07/09 15:07:23;;;;;;;3.35;0.80;;;33.60;56.40;;;;;;6179849;23;20020;-69
2022/07/09 15:10:28;;;;;;;1.30;0.80;;;33.60;56.90;;;;;;6188208;23;20009;-69
2022/07/09 15:13:33;;;;;;;2.78;1.27;;;33.50;57.10;;;;;;6187938;23;20024;-69
2022/07/09 15:16:39;;;;;;;10.07;1.30;;;33.30;57.10;;;;;;6187983;23;20024;-67
2022/07/09 15:19:42;;;;;;;2.65;1.05;;;33.20;57.10;;;;;;6188928;23;20028;-69
2022/07/09 15:22:47;;;;;;;9.20;1.08;;;33.10;57.40;;;;;;6188213;23;20290;-70
2022/07/09 15:25:51;;;;;;;3.10;1.00;;;33.10;58.00;;;;;;6185652;23;20087;-69
2022/07/09 15:28:55;;;;;;;2.28;1.13;;;33.00;57.10;;;;;;6180365;23;20032;-68
2022/07/09 15:31:59;;;;;;;1.80;0.90;;;32.70;57.50;;;;;;6184020;23;20020;-68
2022/07/09 15:35:06;;;;;;;3.42;1.00;;;32.60;57.60;;;;;;6183676;23;20037;-69
2022/07/09 15:38:11;;;;;;;4.80;1.15;;;32.40;58.20;;;;;;6185656;23;20016;-70
2022/07/09 15:41:15;;;;;;;2.15;0.70;;;32.50;57.00;;;;;;6178799;23;20024;-67
2022/07/09 15:44:20;;;;;;;3.35;1.17;;;32.50;57.20;;;;;;6181953;23;20028;-68
2022/07/09 15:47:24;;;;;;;1.58;1.00;;;32.40;58.20;;;;;;6178879;23;20328;-68
2022/07/09 15:50:28;;;;;;;4.43;0.82;;;32.20;58.20;;;;;;6180399;23;20016;-68
2022/07/09 15:53:32;;;;;;;3.65;1.10;;;32.10;58.00;;;;;;6178830;23;20020;-69
2022/07/09 15:56:37;;;;;;;3.00;1.17;;;32.10;58.00;;;;;;6160162;23;20024;-69
2022/07/09 15:59:41;;;;;;;2.25;0.82;;;32.10;58.10;;;;;;6179737;23;20482;-69
2022/07/09 16:02:46;;;;;;;1.73;1.00;;;32.10;57.90;;;;;;6180114;23;20687;-70
2022/07/09 16:05:50;;;;;;;0.98;0.80;;;32.10;58.20;;;;;;6159648;23;20017;-69
2022/07/09 16:08:54;;;;;;;5.38;1.20;;;31.90;58.80;;;;;;6187618;23;20459;-69